sensor_id;sensor_type;location;lat;lon;timestamp;temperature;humidity
38788;DHT22;24536;45.488;12.238;2024-01-25T00:00:35;7.10;91.20
38788;DHT22;24536;45.488;12.238;2024-01-25T00:03:08;7.10;91.30
38788;DHT22;24536;45.488;12.238;2024-01-25T00:05:38;7.00;91.30
38788;DHT22;24536;45.488;12.238;2024-01-25T00:08:12;7.00;91.50
38788;DHT22;24536;45.488;12.238;2024-01-25T00:10:43;6.80;91.60
38788;DHT22;24536;45.488;12.238;2024-01-25T00:13:11;6.80;91.70
38788;DHT22;24536;45.488;12.238;2024-01-25T00:15:44;6.80;91.70
38788;DHT22;24536;45.488;12.238;2024-01-25T00:18:14;6.80;91.80
38788;DHT22;24536;45.488;12.238;2024-01-25T00:20:41;6.80;91.90
38788;DHT22;24536;45.488;12.238;2024-01-25T00:23:30;6.80;91.90
38788;DHT22;24536;45.488;12.238;2024-01-25T00:26:04;6.90;91.90
38788;DHT22;24536;45.488;12.238;2024-01-25T00:28:56;6.90;91.90
38788;DHT22;24536;45.488;12.238;2024-01-25T00:31:28;6.90;91.90
38788;DHT22;24536;45.488;12.238;2024-01-25T00:34:00;6.90;91.90
38788;DHT22;24536;45.488;12.238;2024-01-25T00:36:44;6.90;92.00
38788;DHT22;24536;45.488;12.238;2024-01-25T00:39:14;6.90;92.00
38788;DHT22;24536;45.488;12.238;2024-01-25T00:41:43;6.90;92.10
38788;DHT22;24536;45.488;12.238;2024-01-25T00:44:21;6.90;92.20
38788;DHT22;24536;45.488;12.238;2024-01-25T00:46:49;6.90;92.20
38788;DHT22;24536;45.488;12.238;2024-01-25T00:49:22;6.90;92.10
38788;DHT22;24536;45.488;12.238;2024-01-25T00:51:49;6.90;92.10
38788;DHT22;24536;45.488;12.238;2024-01-25T00:54:16;6.90;92.20
38788;DHT22;24536;45.488;12.238;2024-01-25T00:56:46;6.90;92.10
38788;DHT22;24536;45.488;12.238;2024-01-25T00:59:20;6.90;92.10
38788;DHT22;24536;45.488;12.238;2024-01-25T01:01:53;6.80;92.20
38788;DHT22;24536;45.488;12.238;2024-01-25T01:04:20;6.90;92.20
38788;DHT22;24536;45.488;12.238;2024-01-25T01:06:47;6.90;92.20
38788;DHT22;24536;45.488;12.238;2024-01-25T01:09:13;6.80;92.20
38788;DHT22;24536;45.488;12.238;2024-01-25T01:11:39;6.80;92.30
38788;DHT22;24536;45.488;12.238;2024-01-25T01:14:05;6.80;92.30
38788;DHT22;24536;45.488;12.238;2024-01-25T01:16:30;6.80;92.30
38788;DHT22;24536;45.488;12.238;2024-01-25T01:18:59;6.80;92.40
38788;DHT22;24536;45.488;12.238;2024-01-25T01:21:35;6.80;92.40
38788;DHT22;24536;45.488;12.238;2024-01-25T01:24:01;6.80;92.40
38788;DHT22;24536;45.488;12.238;2024-01-25T01:26:27;6.80;92.50
38788;DHT22;24536;45.488;12.238;2024-01-25T01:28:53;6.70;92.50
38788;DHT22;24536;45.488;12.238;2024-01-25T01:31:19;6.80;92.50
38788;DHT22;24536;45.488;12.238;2024-01-25T01:33:46;6.80;92.50
38788;DHT22;24536;45.488;12.238;2024-01-25T01:36:12;6.70;92.50
38788;DHT22;24536;45.488;12.238;2024-01-25T01:38:40;6.70;92.50
38788;DHT22;24536;45.488;12.238;2024-01-25T01:41:09;6.70;92.60
38788;DHT22;24536;45.488;12.238;2024-01-25T01:43:36;6.70;92.60
38788;DHT22;24536;45.488;12.238;2024-01-25T01:46:09;6.70;92.60
38788;DHT22;24536;45.488;12.238;2024-01-25T01:48:41;6.60;92.90
38788;DHT22;24536;45.488;12.238;2024-01-25T01:51:33;6.60;92.90
38788;DHT22;24536;45.488;12.238;2024-01-25T01:54:06;6.50;93.00
38788;DHT22;24536;45.488;12.238;2024-01-25T01:56:34;6.40;93.10
38788;DHT22;24536;45.488;12.238;2024-01-25T01:59:10;6.50;93.10
38788;DHT22;24536;45.488;12.238;2024-01-25T02:01:38;6.50;93.20
38788;DHT22;24536;45.488;12.238;2024-01-25T02:04:07;6.50;93.40
38788;DHT22;24536;45.488;12.238;2024-01-25T02:06:37;6.50;93.20
38788;DHT22;24536;45.488;12.238;2024-01-25T02:09:24;6.50;93.30
38788;DHT22;24536;45.488;12.238;2024-01-25T02:12:04;6.40;93.30
38788;DHT22;24536;45.488;12.238;2024-01-25T02:14:32;6.40;93.60
38788;DHT22;24536;45.488;12.238;2024-01-25T02:16:58;6.30;93.50
38788;DHT22;24536;45.488;12.238;2024-01-25T02:19:24;6.30;93.50
38788;DHT22;24536;45.488;12.238;2024-01-25T02:21:51;6.30;93.80
38788;DHT22;24536;45.488;12.238;2024-01-25T02:24:21;6.40;93.60
38788;DHT22;24536;45.488;12.238;2024-01-25T02:26:47;6.40;93.80
38788;DHT22;24536;45.488;12.238;2024-01-25T02:29:14;6.40;94.00
38788;DHT22;24536;45.488;12.238;2024-01-25T02:31:39;6.40;94.10
38788;DHT22;24536;45.488;12.238;2024-01-25T02:34:05;6.40;94.10
38788;DHT22;24536;45.488;12.238;2024-01-25T02:36:32;6.40;94.20
38788;DHT22;24536;45.488;12.238;2024-01-25T02:38:58;6.50;94.20
38788;DHT22;24536;45.488;12.238;2024-01-25T02:41:24;6.50;94.30
38788;DHT22;24536;45.488;12.238;2024-01-25T02:43:50;6.50;94.30
38788;DHT22;24536;45.488;12.238;2024-01-25T02:46:16;6.50;94.40
38788;DHT22;24536;45.488;12.238;2024-01-25T02:48:41;6.60;94.40
38788;DHT22;24536;45.488;12.238;2024-01-25T02:51:07;6.60;94.40
38788;DHT22;24536;45.488;12.238;2024-01-25T02:53:34;6.60;94.40
38788;DHT22;24536;45.488;12.238;2024-01-25T02:56:01;6.60;94.50
38788;DHT22;24536;45.488;12.238;2024-01-25T02:58:29;6.60;94.50
38788;DHT22;24536;45.488;12.238;2024-01-25T03:01:10;6.70;94.50
38788;DHT22;24536;45.488;12.238;2024-01-25T03:03:40;6.60;94.70
38788;DHT22;24536;45.488;12.238;2024-01-25T03:06:06;6.50;94.90
38788;DHT22;24536;45.488;12.238;2024-01-25T03:08:32;6.50;94.90
38788;DHT22;24536;45.488;12.238;2024-01-25T03:10:58;6.50;95.00
38788;DHT22;24536;45.488;12.238;2024-01-25T03:13:24;6.50;95.10
38788;DHT22;24536;45.488;12.238;2024-01-25T03:15:50;6.50;95.10
38788;DHT22;24536;45.488;12.238;2024-01-25T03:18:17;6.50;95.20
38788;DHT22;24536;45.488;12.238;2024-01-25T03:20:49;6.50;95.20
38788;DHT22;24536;45.488;12.238;2024-01-25T03:23:17;6.50;95.30
38788;DHT22;24536;45.488;12.238;2024-01-25T03:25:44;6.50;95.30
38788;DHT22;24536;45.488;12.238;2024-01-25T03:28:10;6.50;95.40
38788;DHT22;24536;45.488;12.238;2024-01-25T03:30:39;6.50;95.40
38788;DHT22;24536;45.488;12.238;2024-01-25T03:33:06;6.40;95.70
38788;DHT22;24536;45.488;12.238;2024-01-25T03:35:33;6.30;95.70
38788;DHT22;24536;45.488;12.238;2024-01-25T03:37:58;6.30;95.90
38788;DHT22;24536;45.488;12.238;2024-01-25T03:40:24;6.20;95.90
38788;DHT22;24536;45.488;12.238;2024-01-25T03:42:50;6.20;96.10
38788;DHT22;24536;45.488;12.238;2024-01-25T03:45:15;6.20;95.90
38788;DHT22;24536;45.488;12.238;2024-01-25T03:47:41;6.20;95.90
38788;DHT22;24536;45.488;12.238;2024-01-25T03:50:07;6.20;95.90
38788;DHT22;24536;45.488;12.238;2024-01-25T03:52:32;6.20;96.00
38788;DHT22;24536;45.488;12.238;2024-01-25T03:54:59;6.10;96.10
38788;DHT22;24536;45.488;12.238;2024-01-25T03:57:24;6.10;96.00
38788;DHT22;24536;45.488;12.238;2024-01-25T03:59:50;6.00;96.30
38788;DHT22;24536;45.488;12.238;2024-01-25T04:02:16;6.00;96.10
38788;DHT22;24536;45.488;12.238;2024-01-25T04:04:42;6.00;96.00
38788;DHT22;24536;45.488;12.238;2024-01-25T04:07:07;5.90;96.10
38788;DHT22;24536;45.488;12.238;2024-01-25T04:09:33;5.90;96.00
38788;DHT22;24536;45.488;12.238;2024-01-25T04:11:59;5.90;95.90
38788;DHT22;24536;45.488;12.238;2024-01-25T04:14:25;5.90;96.00
38788;DHT22;24536;45.488;12.238;2024-01-25T04:16:51;5.90;96.00
38788;DHT22;24536;45.488;12.238;2024-01-25T04:19:16;5.90;96.00
38788;DHT22;24536;45.488;12.238;2024-01-25T04:21:42;5.90;96.10
38788;DHT22;24536;45.488;12.238;2024-01-25T04:24:08;5.90;95.90
38788;DHT22;24536;45.488;12.238;2024-01-25T04:26:33;5.90;96.00
38788;DHT22;24536;45.488;12.238;2024-01-25T04:28:59;5.90;96.00
38788;DHT22;24536;45.488;12.238;2024-01-25T04:31:25;5.90;95.90
38788;DHT22;24536;45.488;12.238;2024-01-25T04:33:50;5.90;95.90
38788;DHT22;24536;45.488;12.238;2024-01-25T04:36:16;5.90;95.80
38788;DHT22;24536;45.488;12.238;2024-01-25T04:38:42;5.90;95.70
38788;DHT22;24536;45.488;12.238;2024-01-25T04:41:07;5.90;95.60
38788;DHT22;24536;45.488;12.238;2024-01-25T04:43:36;5.90;95.60
38788;DHT22;24536;45.488;12.238;2024-01-25T04:46:02;5.80;95.60
38788;DHT22;24536;45.488;12.238;2024-01-25T04:48:29;5.80;95.60
38788;DHT22;24536;45.488;12.238;2024-01-25T04:50:56;5.80;95.50
38788;DHT22;24536;45.488;12.238;2024-01-25T04:53:23;5.80;95.60
38788;DHT22;24536;45.488;12.238;2024-01-25T04:55:48;5.80;95.60
38788;DHT22;24536;45.488;12.238;2024-01-25T04:58:14;5.80;95.60
38788;DHT22;24536;45.488;12.238;2024-01-25T05:00:40;5.80;95.50
38788;DHT22;24536;45.488;12.238;2024-01-25T05:03:05;5.80;95.50
38788;DHT22;24536;45.488;12.238;2024-01-25T05:05:31;5.80;95.60
38788;DHT22;24536;45.488;12.238;2024-01-25T05:07:57;5.80;95.60
38788;DHT22;24536;45.488;12.238;2024-01-25T05:10:23;5.80;95.50
38788;DHT22;24536;45.488;12.238;2024-01-25T05:12:50;5.80;95.50
38788;DHT22;24536;45.488;12.238;2024-01-25T05:15:16;5.80;95.60
38788;DHT22;24536;45.488;12.238;2024-01-25T05:17:43;5.80;95.60
38788;DHT22;24536;45.488;12.238;2024-01-25T05:20:08;5.80;95.60
38788;DHT22;24536;45.488;12.238;2024-01-25T05:22:34;5.80;95.50
38788;DHT22;24536;45.488;12.238;2024-01-25T05:25:06;5.80;95.60
38788;DHT22;24536;45.488;12.238;2024-01-25T05:27:31;5.80;95.50
38788;DHT22;24536;45.488;12.238;2024-01-25T05:29:57;5.80;95.60
38788;DHT22;24536;45.488;12.238;2024-01-25T05:32:26;5.80;95.60
38788;DHT22;24536;45.488;12.238;2024-01-25T05:34:57;5.80;95.50
38788;DHT22;24536;45.488;12.238;2024-01-25T05:37:22;5.80;95.40
38788;DHT22;24536;45.488;12.238;2024-01-25T05:39:49;5.90;95.40
38788;DHT22;24536;45.488;12.238;2024-01-25T05:42:17;5.90;95.40
38788;DHT22;24536;45.488;12.238;2024-01-25T05:44:45;5.90;95.30
38788;DHT22;24536;45.488;12.238;2024-01-25T05:47:18;5.80;95.30
38788;DHT22;24536;45.488;12.238;2024-01-25T05:49:44;5.70;95.50
38788;DHT22;24536;45.488;12.238;2024-01-25T05:52:10;5.70;95.80
38788;DHT22;24536;45.488;12.238;2024-01-25T05:54:36;5.70;95.60
38788;DHT22;24536;45.488;12.238;2024-01-25T05:57:01;5.70;95.60
38788;DHT22;24536;45.488;12.238;2024-01-25T05:59:27;5.70;95.60
38788;DHT22;24536;45.488;12.238;2024-01-25T06:01:53;5.70;95.70
38788;DHT22;24536;45.488;12.238;2024-01-25T06:04:19;5.70;95.80
38788;DHT22;24536;45.488;12.238;2024-01-25T06:06:45;5.60;95.70
38788;DHT22;24536;45.488;12.238;2024-01-25T06:09:10;5.60;95.80
38788;DHT22;24536;45.488;12.238;2024-01-25T06:11:36;5.70;95.90
38788;DHT22;24536;45.488;12.238;2024-01-25T06:14:04;5.70;95.80
38788;DHT22;24536;45.488;12.238;2024-01-25T06:16:31;5.70;95.70
38788;DHT22;24536;45.488;12.238;2024-01-25T06:18:57;5.60;95.90
38788;DHT22;24536;45.488;12.238;2024-01-25T06:21:24;5.60;96.00
38788;DHT22;24536;45.488;12.238;2024-01-25T06:23:50;5.60;95.90
38788;DHT22;24536;45.488;12.238;2024-01-25T06:26:16;5.60;96.00
38788;DHT22;24536;45.488;12.238;2024-01-25T06:28:54;5.60;95.90
38788;DHT22;24536;45.488;12.238;2024-01-25T06:31:20;5.60;96.00
38788;DHT22;24536;45.488;12.238;2024-01-25T06:33:45;5.60;95.90
38788;DHT22;24536;45.488;12.238;2024-01-25T06:36:17;5.70;96.00
38788;DHT22;24536;45.488;12.238;2024-01-25T06:38:47;5.70;95.90
38788;DHT22;24536;45.488;12.238;2024-01-25T06:41:12;5.70;95.80
38788;DHT22;24536;45.488;12.238;2024-01-25T06:43:39;5.70;95.90
38788;DHT22;24536;45.488;12.238;2024-01-25T06:46:08;5.60;95.80
38788;DHT22;24536;45.488;12.238;2024-01-25T06:48:34;5.60;96.00
38788;DHT22;24536;45.488;12.238;2024-01-25T06:51:01;5.50;96.00
38788;DHT22;24536;45.488;12.238;2024-01-25T06:53:27;5.50;96.00
38788;DHT22;24536;45.488;12.238;2024-01-25T06:55:53;5.40;96.10
38788;DHT22;24536;45.488;12.238;2024-01-25T06:58:18;5.30;96.30
38788;DHT22;24536;45.488;12.238;2024-01-25T07:00:45;5.30;96.20
38788;DHT22;24536;45.488;12.238;2024-01-25T07:03:12;5.40;96.20
38788;DHT22;24536;45.488;12.238;2024-01-25T07:05:38;5.40;96.20
38788;DHT22;24536;45.488;12.238;2024-01-25T07:08:04;5.40;96.20
38788;DHT22;24536;45.488;12.238;2024-01-25T07:10:30;5.30;96.40
38788;DHT22;24536;45.488;12.238;2024-01-25T07:12:57;5.30;96.50
38788;DHT22;24536;45.488;12.238;2024-01-25T07:15:26;5.30;96.40
38788;DHT22;24536;45.488;12.238;2024-01-25T07:17:52;5.40;96.40
38788;DHT22;24536;45.488;12.238;2024-01-25T07:20:18;5.50;96.20
38788;DHT22;24536;45.488;12.238;2024-01-25T07:22:44;5.50;96.20
38788;DHT22;24536;45.488;12.238;2024-01-25T07:25:10;5.50;96.20
38788;DHT22;24536;45.488;12.238;2024-01-25T07:27:38;5.60;96.30
38788;DHT22;24536;45.488;12.238;2024-01-25T07:30:04;5.60;96.20
38788;DHT22;24536;45.488;12.238;2024-01-25T07:32:30;5.60;96.10
38788;DHT22;24536;45.488;12.238;2024-01-25T07:34:58;5.60;96.60
38788;DHT22;24536;45.488;12.238;2024-01-25T07:37:23;5.60;96.70
38788;DHT22;24536;45.488;12.238;2024-01-25T07:39:49;5.70;96.40
38788;DHT22;24536;45.488;12.238;2024-01-25T07:42:15;5.70;96.20
38788;DHT22;24536;45.488;12.238;2024-01-25T07:44:41;5.90;96.70
38788;DHT22;24536;45.488;12.238;2024-01-25T07:47:07;5.90;96.30
38788;DHT22;24536;45.488;12.238;2024-01-25T07:49:32;6.00;96.10
38788;DHT22;24536;45.488;12.238;2024-01-25T07:51:58;6.10;95.90
38788;DHT22;24536;45.488;12.238;2024-01-25T07:54:24;6.00;95.80
38788;DHT22;24536;45.488;12.238;2024-01-25T07:56:50;6.10;95.70
38788;DHT22;24536;45.488;12.238;2024-01-25T07:59:16;6.10;95.60
38788;DHT22;24536;45.488;12.238;2024-01-25T08:01:42;6.10;95.60
38788;DHT22;24536;45.488;12.238;2024-01-25T08:04:07;6.10;95.60
38788;DHT22;24536;45.488;12.238;2024-01-25T08:06:33;6.10;95.70
38788;DHT22;24536;45.488;12.238;2024-01-25T08:08:59;6.10;95.70
38788;DHT22;24536;45.488;12.238;2024-01-25T08:11:25;6.10;95.80
38788;DHT22;24536;45.488;12.238;2024-01-25T08:13:51;6.20;95.80
38788;DHT22;24536;45.488;12.238;2024-01-25T08:16:17;6.20;95.80
38788;DHT22;24536;45.488;12.238;2024-01-25T08:18:46;6.20;95.80
38788;DHT22;24536;45.488;12.238;2024-01-25T08:21:18;6.20;96.20
38788;DHT22;24536;45.488;12.238;2024-01-25T08:23:44;6.20;96.00
38788;DHT22;24536;45.488;12.238;2024-01-25T08:26:09;6.30;95.90
38788;DHT22;24536;45.488;12.238;2024-01-25T08:28:35;6.40;95.90
38788;DHT22;24536;45.488;12.238;2024-01-25T08:31:04;6.50;95.90
38788;DHT22;24536;45.488;12.238;2024-01-25T08:33:30;6.60;95.70
38788;DHT22;24536;45.488;12.238;2024-01-25T08:35:56;6.60;95.70
38788;DHT22;24536;45.488;12.238;2024-01-25T08:38:21;6.70;95.70
38788;DHT22;24536;45.488;12.238;2024-01-25T08:40:47;6.80;95.70
38788;DHT22;24536;45.488;12.238;2024-01-25T08:43:13;6.90;95.70
38788;DHT22;24536;45.488;12.238;2024-01-25T08:45:38;7.00;95.60
38788;DHT22;24536;45.488;12.238;2024-01-25T08:48:04;7.10;95.50
38788;DHT22;24536;45.488;12.238;2024-01-25T08:50:31;7.20;95.50
38788;DHT22;24536;45.488;12.238;2024-01-25T08:52:57;7.30;95.50
38788;DHT22;24536;45.488;12.238;2024-01-25T08:55:22;7.50;95.30
38788;DHT22;24536;45.488;12.238;2024-01-25T08:57:49;7.60;95.10
38788;DHT22;24536;45.488;12.238;2024-01-25T09:00:15;7.70;95.00
38788;DHT22;24536;45.488;12.238;2024-01-25T09:02:41;8.00;95.00
38788;DHT22;24536;45.488;12.238;2024-01-25T09:05:08;8.10;94.30
38788;DHT22;24536;45.488;12.238;2024-01-25T09:07:34;8.20;94.30
38788;DHT22;24536;45.488;12.238;2024-01-25T09:10:00;8.30;94.40
38788;DHT22;24536;45.488;12.238;2024-01-25T09:12:26;8.50;94.40
38788;DHT22;24536;45.488;12.238;2024-01-25T09:14:51;8.60;94.00
38788;DHT22;24536;45.488;12.238;2024-01-25T09:17:17;8.80;94.00
38788;DHT22;24536;45.488;12.238;2024-01-25T09:19:50;8.90;93.70
38788;DHT22;24536;45.488;12.238;2024-01-25T09:22:17;9.00;93.50
38788;DHT22;24536;45.488;12.238;2024-01-25T09:24:45;9.10;93.60
38788;DHT22;24536;45.488;12.238;2024-01-25T09:27:11;9.30;93.60
38788;DHT22;24536;45.488;12.238;2024-01-25T09:29:41;9.40;93.40
38788;DHT22;24536;45.488;12.238;2024-01-25T09:32:07;9.60;93.00
38788;DHT22;24536;45.488;12.238;2024-01-25T09:34:34;9.60;92.90
38788;DHT22;24536;45.488;12.238;2024-01-25T09:37:00;9.70;93.00
38788;DHT22;24536;45.488;12.238;2024-01-25T09:39:26;9.90;93.00
38788;DHT22;24536;45.488;12.238;2024-01-25T09:41:52;10.10;92.90
38788;DHT22;24536;45.488;12.238;2024-01-25T09:44:18;10.30;92.80
38788;DHT22;24536;45.488;12.238;2024-01-25T09:46:45;10.40;92.60
38788;DHT22;24536;45.488;12.238;2024-01-25T09:49:11;10.60;92.20
38788;DHT22;24536;45.488;12.238;2024-01-25T09:51:39;10.70;92.30
38788;DHT22;24536;45.488;12.238;2024-01-25T09:54:05;10.80;92.10
38788;DHT22;24536;45.488;12.238;2024-01-25T09:56:32;11.00;92.10
38788;DHT22;24536;45.488;12.238;2024-01-25T09:58:59;11.10;92.00
38788;DHT22;24536;45.488;12.238;2024-01-25T10:01:25;11.30;91.90
38788;DHT22;24536;45.488;12.238;2024-01-25T10:03:51;11.50;91.80
38788;DHT22;24536;45.488;12.238;2024-01-25T10:06:17;11.60;91.50
38788;DHT22;24536;45.488;12.238;2024-01-25T10:08:44;11.70;91.30
38788;DHT22;24536;45.488;12.238;2024-01-25T10:11:10;11.90;91.30
38788;DHT22;24536;45.488;12.238;2024-01-25T10:13:45;12.00;91.20
38788;DHT22;24536;45.488;12.238;2024-01-25T10:16:12;12.20;91.10
38788;DHT22;24536;45.488;12.238;2024-01-25T10:18:40;12.30;90.50
38788;DHT22;24536;45.488;12.238;2024-01-25T10:21:07;12.40;90.60
38788;DHT22;24536;45.488;12.238;2024-01-25T10:23:32;12.50;90.10
38788;DHT22;24536;45.488;12.238;2024-01-25T10:25:58;12.60;90.20
38788;DHT22;24536;45.488;12.238;2024-01-25T10:28:24;12.70;89.80
38788;DHT22;24536;45.488;12.238;2024-01-25T10:30:56;12.90;89.60
38788;DHT22;24536;45.488;12.238;2024-01-25T10:33:24;12.90;88.10
38788;DHT22;24536;45.488;12.238;2024-01-25T10:35:54;12.90;88.10
38788;DHT22;24536;45.488;12.238;2024-01-25T10:38:21;13.10;87.30
38788;DHT22;24536;45.488;12.238;2024-01-25T10:40:47;13.00;86.50
38788;DHT22;24536;45.488;12.238;2024-01-25T10:43:13;13.10;87.20
38788;DHT22;24536;45.488;12.238;2024-01-25T10:45:39;13.10;86.70
38788;DHT22;24536;45.488;12.238;2024-01-25T10:48:05;13.20;86.10
38788;DHT22;24536;45.488;12.238;2024-01-25T10:50:33;13.20;85.00
38788;DHT22;24536;45.488;12.238;2024-01-25T10:52:59;13.30;85.00
38788;DHT22;24536;45.488;12.238;2024-01-25T10:55:26;13.30;84.20
38788;DHT22;24536;45.488;12.238;2024-01-25T10:57:51;13.30;84.30
38788;DHT22;24536;45.488;12.238;2024-01-25T11:00:18;13.40;85.00
38788;DHT22;24536;45.488;12.238;2024-01-25T11:02:45;13.60;85.90
38788;DHT22;24536;45.488;12.238;2024-01-25T11:05:15;13.80;85.90
38788;DHT22;24536;45.488;12.238;2024-01-25T11:07:48;14.10;84.10
38788;DHT22;24536;45.488;12.238;2024-01-25T11:10:20;14.20;82.10
38788;DHT22;24536;45.488;12.238;2024-01-25T11:17:58;14.30;82.50
38788;DHT22;24536;45.488;12.238;2024-01-25T11:20:25;14.50;82.70
38788;DHT22;24536;45.488;12.238;2024-01-25T11:23:01;14.60;81.80
38788;DHT22;24536;45.488;12.238;2024-01-25T11:25:31;14.80;82.10
38788;DHT22;24536;45.488;12.238;2024-01-25T11:27:58;14.90;79.70
38788;DHT22;24536;45.488;12.238;2024-01-25T11:30:25;15.00;78.70
38788;DHT22;24536;45.488;12.238;2024-01-25T11:32:51;15.00;79.30
38788;DHT22;24536;45.488;12.238;2024-01-25T11:35:17;15.00;80.40
38788;DHT22;24536;45.488;12.238;2024-01-25T11:37:46;15.20;80.90
38788;DHT22;24536;45.488;12.238;2024-01-25T11:40:13;15.50;79.90
38788;DHT22;24536;45.488;12.238;2024-01-25T11:42:40;15.50;78.30
38788;DHT22;24536;45.488;12.238;2024-01-25T11:45:08;15.70;80.00
38788;DHT22;24536;45.488;12.238;2024-01-25T11:47:35;15.90;79.10
38788;DHT22;24536;45.488;12.238;2024-01-25T11:50:02;16.30;79.60
38788;DHT22;24536;45.488;12.238;2024-01-25T11:52:28;16.50;77.90
38788;DHT22;24536;45.488;12.238;2024-01-25T11:54:54;17.00;78.90
38788;DHT22;24536;45.488;12.238;2024-01-25T11:57:20;17.90;76.40
38788;DHT22;24536;45.488;12.238;2024-01-25T11:59:49;18.80;74.60
38788;DHT22;24536;45.488;12.238;2024-01-25T12:02:15;19.90;72.60
38788;DHT22;24536;45.488;12.238;2024-01-25T12:04:41;21.10;69.50
38788;DHT22;24536;45.488;12.238;2024-01-25T12:07:07;22.20;67.20
38788;DHT22;24536;45.488;12.238;2024-01-25T12:09:33;23.10;64.20
38788;DHT22;24536;45.488;12.238;2024-01-25T12:12:02;23.90;61.80
38788;DHT22;24536;45.488;12.238;2024-01-25T12:14:32;24.60;59.40
38788;DHT22;24536;45.488;12.238;2024-01-25T12:16:58;25.20;55.90
38788;DHT22;24536;45.488;12.238;2024-01-25T12:19:23;25.60;54.90
38788;DHT22;24536;45.488;12.238;2024-01-25T12:21:49;25.80;53.60
38788;DHT22;24536;45.488;12.238;2024-01-25T12:24:22;26.00;52.80
38788;DHT22;24536;45.488;12.238;2024-01-25T12:26:48;26.10;52.10
38788;DHT22;24536;45.488;12.238;2024-01-25T12:29:18;26.30;51.70
38788;DHT22;24536;45.488;12.238;2024-01-25T12:31:46;26.40;50.60
38788;DHT22;24536;45.488;12.238;2024-01-25T12:34:14;26.40;50.00
38788;DHT22;24536;45.488;12.238;2024-01-25T12:36:41;26.40;49.80
38788;DHT22;24536;45.488;12.238;2024-01-25T12:39:07;26.30;48.90
38788;DHT22;24536;45.488;12.238;2024-01-25T12:41:33;26.30;49.20
38788;DHT22;24536;45.488;12.238;2024-01-25T12:43:59;26.20;49.10
38788;DHT22;24536;45.488;12.238;2024-01-25T12:46:24;26.10;49.00
38788;DHT22;24536;45.488;12.238;2024-01-25T12:49:08;26.00;48.90
38788;DHT22;24536;45.488;12.238;2024-01-25T12:51:52;25.60;49.20
38788;DHT22;24536;45.488;12.238;2024-01-25T12:54:29;25.20;50.10
38788;DHT22;24536;45.488;12.238;2024-01-25T12:56:56;24.80;50.60
38788;DHT22;24536;45.488;12.238;2024-01-25T12:59:22;24.60;50.90
38788;DHT22;24536;45.488;12.238;2024-01-25T13:01:54;24.30;51.50
38788;DHT22;24536;45.488;12.238;2024-01-25T13:04:21;24.00;51.40
38788;DHT22;24536;45.488;12.238;2024-01-25T13:06:48;23.90;51.90
38788;DHT22;24536;45.488;12.238;2024-01-25T13:09:15;23.90;51.60
38788;DHT22;24536;45.488;12.238;2024-01-25T13:11:42;23.90;51.70
38788;DHT22;24536;45.488;12.238;2024-01-25T13:14:16;23.90;51.70
38788;DHT22;24536;45.488;12.238;2024-01-25T13:16:43;23.90;51.70
38788;DHT22;24536;45.488;12.238;2024-01-25T13:19:11;24.00;51.70
38788;DHT22;24536;45.488;12.238;2024-01-25T13:21:41;23.90;50.80
38788;DHT22;24536;45.488;12.238;2024-01-25T13:24:08;23.60;51.30
38788;DHT22;24536;45.488;12.238;2024-01-25T13:26:36;23.50;51.80
38788;DHT22;24536;45.488;12.238;2024-01-25T13:29:03;23.40;52.20
38788;DHT22;24536;45.488;12.238;2024-01-25T13:31:29;23.30;51.90
38788;DHT22;24536;45.488;12.238;2024-01-25T13:33:58;23.00;52.00
38788;DHT22;24536;45.488;12.238;2024-01-25T13:36:31;22.40;52.20
38788;DHT22;24536;45.488;12.238;2024-01-25T13:38:59;21.80;53.50
38788;DHT22;24536;45.488;12.238;2024-01-25T13:41:26;21.10;54.30
38788;DHT22;24536;45.488;12.238;2024-01-25T13:43:57;20.50;55.40
38788;DHT22;24536;45.488;12.238;2024-01-25T13:46:26;19.90;56.90
38788;DHT22;24536;45.488;12.238;2024-01-25T13:49:07;19.40;57.80
38788;DHT22;24536;45.488;12.238;2024-01-25T13:51:46;19.00;58.70
38788;DHT22;24536;45.488;12.238;2024-01-25T13:54:12;18.60;59.40
38788;DHT22;24536;45.488;12.238;2024-01-25T13:56:37;18.20;60.00
38788;DHT22;24536;45.488;12.238;2024-01-25T13:59:05;17.90;60.70
38788;DHT22;24536;45.488;12.238;2024-01-25T14:01:31;17.70;61.60
38788;DHT22;24536;45.488;12.238;2024-01-25T14:03:57;17.50;62.40
38788;DHT22;24536;45.488;12.238;2024-01-25T14:06:23;17.30;63.30
38788;DHT22;24536;45.488;12.238;2024-01-25T14:08:48;17.10;64.00
38788;DHT22;24536;45.488;12.238;2024-01-25T14:11:15;16.90;64.90
38788;DHT22;24536;45.488;12.238;2024-01-25T14:13:42;16.70;65.50
38788;DHT22;24536;45.488;12.238;2024-01-25T14:16:08;16.60;66.20
38788;DHT22;24536;45.488;12.238;2024-01-25T14:18:39;16.40;66.80
38788;DHT22;24536;45.488;12.238;2024-01-25T14:21:05;16.30;67.70
38788;DHT22;24536;45.488;12.238;2024-01-25T14:23:32;16.20;68.10
38788;DHT22;24536;45.488;12.238;2024-01-25T14:25:57;16.00;68.40
38788;DHT22;24536;45.488;12.238;2024-01-25T14:28:23;15.90;69.00
38788;DHT22;24536;45.488;12.238;2024-01-25T14:30:49;15.80;69.90
38788;DHT22;24536;45.488;12.238;2024-01-25T14:33:15;15.80;69.70
38788;DHT22;24536;45.488;12.238;2024-01-25T14:35:41;15.70;70.00
38788;DHT22;24536;45.488;12.238;2024-01-25T14:38:06;15.70;70.30
38788;DHT22;24536;45.488;12.238;2024-01-25T14:40:32;15.60;70.70
38788;DHT22;24536;45.488;12.238;2024-01-25T14:42:58;15.50;70.90
38788;DHT22;24536;45.488;12.238;2024-01-25T14:45:24;15.50;71.20
38788;DHT22;24536;45.488;12.238;2024-01-25T14:47:50;15.40;71.60
38788;DHT22;24536;45.488;12.238;2024-01-25T14:50:15;15.40;71.80
38788;DHT22;24536;45.488;12.238;2024-01-25T14:52:44;15.30;72.10
38788;DHT22;24536;45.488;12.238;2024-01-25T14:55:10;15.30;72.60
38788;DHT22;24536;45.488;12.238;2024-01-25T14:57:35;15.20;72.90
38788;DHT22;24536;45.488;12.238;2024-01-25T15:00:01;15.20;73.20
38788;DHT22;24536;45.488;12.238;2024-01-25T15:02:27;15.20;73.50
38788;DHT22;24536;45.488;12.238;2024-01-25T15:04:53;15.10;73.60
38788;DHT22;24536;45.488;12.238;2024-01-25T15:07:18;15.10;73.90
38788;DHT22;24536;45.488;12.238;2024-01-25T15:09:47;15.10;74.10
38788;DHT22;24536;45.488;12.238;2024-01-25T15:12:14;15.00;74.30
38788;DHT22;24536;45.488;12.238;2024-01-25T15:14:40;15.00;74.60
38788;DHT22;24536;45.488;12.238;2024-01-25T15:17:06;14.90;74.80
38788;DHT22;24536;45.488;12.238;2024-01-25T15:19:31;14.90;75.10
38788;DHT22;24536;45.488;12.238;2024-01-25T15:21:57;14.80;75.40
38788;DHT22;24536;45.488;12.238;2024-01-25T15:24:23;14.80;75.70
38788;DHT22;24536;45.488;12.238;2024-01-25T15:26:48;14.70;75.90
38788;DHT22;24536;45.488;12.238;2024-01-25T15:29:14;14.70;76.20
38788;DHT22;24536;45.488;12.238;2024-01-25T15:31:40;14.60;76.30